sensor_id;sensor_type;location;lat;lon;timestamp;pressure;altitude;pressure_sealevel;temperature;humidity
44453;BME280;30155;52.164;21.236;2024-01-15T00:06:01;98398.83;;;0.64;89.78
44453;BME280;30155;52.164;21.236;2024-01-15T00:16:52;98393.10;;;0.66;89.64
44453;BME280;30155;52.164;21.236;2024-01-15T00:21:47;98384.23;;;0.66;89.78
44453;BME280;30155;52.164;21.236;2024-01-15T00:26:40;98373.98;;;0.65;89.74
44453;BME280;30155;52.164;21.236;2024-01-15T00:31:33;98370.87;;;0.64;89.88
44453;BME280;30155;52.164;21.236;2024-01-15T00:36:26;98357.73;;;0.64;89.65
44453;BME280;30155;52.164;21.236;2024-01-15T00:41:19;98350.23;;;0.63;89.79
44453;BME280;30155;52.164;21.236;2024-01-15T00:46:12;98340.33;;;0.62;89.82
44453;BME280;30155;52.164;21.236;2024-01-15T00:51:04;98337.58;;;0.62;89.67
44453;BME280;30155;52.164;21.236;2024-01-15T00:55:57;98321.52;;;0.60;89.64
44453;BME280;30155;52.164;21.236;2024-01-15T01:00:50;98313.34;;;0.59;89.59
44453;BME280;30155;52.164;21.236;2024-01-15T01:05:43;98304.96;;;0.58;89.70
44453;BME280;30155;52.164;21.236;2024-01-15T01:10:37;98295.91;;;0.58;89.81
44453;BME280;30155;52.164;21.236;2024-01-15T01:15:29;98288.59;;;0.58;89.77
44453;BME280;30155;52.164;21.236;2024-01-15T01:20:22;98278.49;;;0.56;89.64
44453;BME280;30155;52.164;21.236;2024-01-15T01:25:15;98274.00;;;0.53;89.77
44453;BME280;30155;52.164;21.236;2024-01-15T01:30:08;98270.57;;;0.52;90.12
44453;BME280;30155;52.164;21.236;2024-01-15T01:35:01;98270.67;;;0.48;90.10
44453;BME280;30155;52.164;21.236;2024-01-15T01:39:54;98269.95;;;0.45;90.29
44453;BME280;30155;52.164;21.236;2024-01-15T01:44:47;98259.36;;;0.45;90.54
44453;BME280;30155;52.164;21.236;2024-01-15T01:49:40;98260.21;;;0.44;90.64
44453;BME280;30155;52.164;21.236;2024-01-15T01:54:35;98255.75;;;0.43;90.48
44453;BME280;30155;52.164;21.236;2024-01-15T01:59:28;98246.36;;;0.42;90.59
44453;BME280;30155;52.164;21.236;2024-01-15T02:04:24;98236.11;;;0.40;90.54
44453;BME280;30155;52.164;21.236;2024-01-15T02:09:18;98231.85;;;0.40;90.65
44453;BME280;30155;52.164;21.236;2024-01-15T02:14:11;98233.23;;;0.41;90.86
44453;BME280;30155;52.164;21.236;2024-01-15T02:19:03;98222.65;;;0.41;90.92
44453;BME280;30155;52.164;21.236;2024-01-15T02:23:56;98213.80;;;0.42;90.76
44453;BME280;30155;52.164;21.236;2024-01-15T02:28:50;98213.30;;;0.41;90.78
44453;BME280;30155;52.164;21.236;2024-01-15T02:33:43;98204.93;;;0.41;90.47
44453;BME280;30155;52.164;21.236;2024-01-15T02:38:38;98202.88;;;0.40;90.65
44453;BME280;30155;52.164;21.236;2024-01-15T02:43:31;98199.32;;;0.42;90.68
44453;BME280;30155;52.164;21.236;2024-01-15T02:48:23;98193.02;;;0.42;90.53
44453;BME280;30155;52.164;21.236;2024-01-15T02:53:16;98186.88;;;0.42;90.57
44453;BME280;30155;52.164;21.236;2024-01-15T02:58:09;98174.44;;;0.42;90.33
44453;BME280;30155;52.164;21.236;2024-01-15T03:03:02;98159.95;;;0.42;90.41
44453;BME280;30155;52.164;21.236;2024-01-15T03:07:55;98155.69;;;0.41;90.40
44453;BME280;30155;52.164;21.236;2024-01-15T03:12:48;98149.88;;;0.40;90.42
44453;BME280;30155;52.164;21.236;2024-01-15T03:17:41;98145.08;;;0.38;90.25
44453;BME280;30155;52.164;21.236;2024-01-15T03:22:35;98129.71;;;0.36;90.32
44453;BME280;30155;52.164;21.236;2024-01-15T03:27:27;98120.34;;;0.37;90.54
44453;BME280;30155;52.164;21.236;2024-01-15T03:32:20;98115.05;;;0.36;90.38
44453;BME280;30155;52.164;21.236;2024-01-15T03:37:13;98112.30;;;0.35;90.34
44453;BME280;30155;52.164;21.236;2024-01-15T03:42:06;98108.88;;;0.33;90.25
44453;BME280;30155;52.164;21.236;2024-01-15T03:47:02;98104.13;;;0.35;90.53
44453;BME280;30155;52.164;21.236;2024-01-15T03:51:54;98102.07;;;0.34;90.52
44453;BME280;30155;52.164;21.236;2024-01-15T03:56:47;98096.11;;;0.34;90.42
44453;BME280;30155;52.164;21.236;2024-01-15T04:01:40;98086.55;;;0.33;90.48
44453;BME280;30155;52.164;21.236;2024-01-15T04:06:33;98076.81;;;0.32;90.44
44453;BME280;30155;52.164;21.236;2024-01-15T04:11:26;98074.21;;;0.28;90.29
44453;BME280;30155;52.164;21.236;2024-01-15T04:16:19;98069.05;;;0.25;90.47
44453;BME280;30155;52.164;21.236;2024-01-15T04:21:11;98059.33;;;0.24;90.44
44453;BME280;30155;52.164;21.236;2024-01-15T04:26:04;98052.16;;;0.24;90.50
44453;BME280;30155;52.164;21.236;2024-01-15T04:30:57;98037.66;;;0.23;90.54
44453;BME280;30155;52.164;21.236;2024-01-15T04:35:50;98031.37;;;0.24;90.60
44453;BME280;30155;52.164;21.236;2024-01-15T04:40:42;98021.52;;;0.25;90.49
44453;BME280;30155;52.164;21.236;2024-01-15T04:45:35;98017.61;;;0.26;90.15
44453;BME280;30155;52.164;21.236;2024-01-15T04:50:28;98007.89;;;0.26;90.18
44453;BME280;30155;52.164;21.236;2024-01-15T04:55:21;98012.83;;;0.26;90.24
44453;BME280;30155;52.164;21.236;2024-01-15T05:00:14;98010.28;;;0.27;90.19
44453;BME280;30155;52.164;21.236;2024-01-15T05:05:07;98001.09;;;0.27;90.22
44453;BME280;30155;52.164;21.236;2024-01-15T05:10:00;97993.09;;;0.28;89.70
44453;BME280;30155;52.164;21.236;2024-01-15T05:14:53;97984.58;;;0.28;89.76
44453;BME280;30155;52.164;21.236;2024-01-15T05:19:45;97986.13;;;0.29;89.58
44453;BME280;30155;52.164;21.236;2024-01-15T05:24:38;97987.32;;;0.30;89.58
44453;BME280;30155;52.164;21.236;2024-01-15T05:29:31;97987.15;;;0.29;89.73
44453;BME280;30155;52.164;21.236;2024-01-15T05:34:24;97987.48;;;0.29;89.64
44453;BME280;30155;52.164;21.236;2024-01-15T05:39:17;97987.17;;;0.31;89.37
44453;BME280;30155;52.164;21.236;2024-01-15T05:44:14;97982.41;;;0.31;89.62
44453;BME280;30155;52.164;21.236;2024-01-15T05:49:06;97983.63;;;0.33;89.43
44453;BME280;30155;52.164;21.236;2024-01-15T05:53:59;97986.36;;;0.34;89.28
44453;BME280;30155;52.164;21.236;2024-01-15T05:58:52;97981.61;;;0.34;89.50
44453;BME280;30155;52.164;21.236;2024-01-15T06:03:45;97977.86;;;0.35;89.08
44453;BME280;30155;52.164;21.236;2024-01-15T06:08:38;97979.61;;;0.37;89.02
44453;BME280;30155;52.164;21.236;2024-01-15T06:13:30;97974.69;;;0.40;89.03
44453;BME280;30155;52.164;21.236;2024-01-15T06:18:23;97971.13;;;0.41;89.00
44453;BME280;30155;52.164;21.236;2024-01-15T06:23:16;97964.15;;;0.42;88.64
44453;BME280;30155;52.164;21.236;2024-01-15T06:28:12;97958.19;;;0.42;88.84
44453;BME280;30155;52.164;21.236;2024-01-15T06:33:04;97956.31;;;0.43;88.72
44453;BME280;30155;52.164;21.236;2024-01-15T06:37:57;97946.27;;;0.43;88.52
44453;BME280;30155;52.164;21.236;2024-01-15T06:42:50;97945.08;;;0.45;88.54
44453;BME280;30155;52.164;21.236;2024-01-15T06:47:43;97941.69;;;0.45;88.37
44453;BME280;30155;52.164;21.236;2024-01-15T06:52:35;97940.33;;;0.46;88.46
44453;BME280;30155;52.164;21.236;2024-01-15T06:57:28;97944.96;;;0.48;88.03
44453;BME280;30155;52.164;21.236;2024-01-15T07:02:21;97942.46;;;0.52;87.99
44453;BME280;30155;52.164;21.236;2024-01-15T07:07:14;97940.95;;;0.55;87.92
44453;BME280;30155;52.164;21.236;2024-01-15T07:12:07;97945.06;;;0.55;87.86
44453;BME280;30155;52.164;21.236;2024-01-15T07:16:59;97942.67;;;0.56;87.56
44453;BME280;30155;52.164;21.236;2024-01-15T07:21:52;97942.05;;;0.59;87.50
44453;BME280;30155;52.164;21.236;2024-01-15T07:26:47;97938.28;;;0.58;87.23
44453;BME280;30155;52.164;21.236;2024-01-15T07:31:40;97938.27;;;0.57;87.48
44453;BME280;30155;52.164;21.236;2024-01-15T07:36:39;97935.50;;;0.54;87.62
44453;BME280;30155;52.164;21.236;2024-01-15T07:41:33;97931.57;;;0.53;87.82
44453;BME280;30155;52.164;21.236;2024-01-15T07:46:26;97934.64;;;0.54;88.01
44453;BME280;30155;52.164;21.236;2024-01-15T07:51:19;97934.08;;;0.50;88.27
44453;BME280;30155;52.164;21.236;2024-01-15T07:56:12;97938.46;;;0.45;88.57
44453;BME280;30155;52.164;21.236;2024-01-15T08:01:04;97935.21;;;0.45;88.89
44453;BME280;30155;52.164;21.236;2024-01-15T08:05:58;97946.92;;;0.41;88.52
44453;BME280;30155;52.164;21.236;2024-01-15T08:10:54;97938.04;;;0.39;88.61
44453;BME280;30155;52.164;21.236;2024-01-15T08:15:47;97929.02;;;0.39;88.92
44453;BME280;30155;52.164;21.236;2024-01-15T08:20:41;97925.14;;;0.44;88.70
44453;BME280;30155;52.164;21.236;2024-01-15T08:25:34;97932.71;;;0.49;88.86
44453;BME280;30155;52.164;21.236;2024-01-15T08:30:30;97941.61;;;0.53;88.58
44453;BME280;30155;52.164;21.236;2024-01-15T08:35:24;97948.43;;;0.53;88.45
44453;BME280;30155;52.164;21.236;2024-01-15T08:40:17;97945.64;;;0.61;88.55
44453;BME280;30155;52.164;21.236;2024-01-15T08:45:10;97946.45;;;0.72;88.27
44453;BME280;30155;52.164;21.236;2024-01-15T08:50:03;97940.45;;;0.83;87.87
44453;BME280;30155;52.164;21.236;2024-01-15T08:54:57;97946.22;;;0.96;87.67
44453;BME280;30155;52.164;21.236;2024-01-15T08:59:50;97938.44;;;1.04;87.35
44453;BME280;30155;52.164;21.236;2024-01-15T09:04:45;97941.96;;;0.97;87.84
44453;BME280;30155;52.164;21.236;2024-01-15T09:09:38;97952.94;;;0.87;88.06
44453;BME280;30155;52.164;21.236;2024-01-15T09:14:33;97965.57;;;0.74;88.17
44453;BME280;30155;52.164;21.236;2024-01-15T09:19:28;97967.92;;;0.71;88.24
44453;BME280;30155;52.164;21.236;2024-01-15T09:24:21;97964.17;;;0.86;88.08
44453;BME280;30155;52.164;21.236;2024-01-15T09:29:19;97961.95;;;0.99;87.65
44453;BME280;30155;52.164;21.236;2024-01-15T09:34:12;97959.52;;;1.13;86.81
44453;BME280;30155;52.164;21.236;2024-01-15T09:39:09;97960.17;;;1.27;86.30
44453;BME280;30155;52.164;21.236;2024-01-15T09:44:24;97949.65;;;1.51;85.67
44453;BME280;30155;52.164;21.236;2024-01-15T09:49:33;97944.36;;;1.73;84.39
44453;BME280;30155;52.164;21.236;2024-01-15T09:54:27;97942.05;;;1.83;84.25
44453;BME280;30155;52.164;21.236;2024-01-15T09:59:20;97937.58;;;2.04;83.57
44453;BME280;30155;52.164;21.236;2024-01-15T10:05:13;97924.95;;;2.38;82.25
44453;BME280;30155;52.164;21.236;2024-01-15T10:10:10;97925.15;;;2.42;82.34
44453;BME280;30155;52.164;21.236;2024-01-15T10:15:16;97921.66;;;2.28;81.67
44453;BME280;30155;52.164;21.236;2024-01-15T10:20:12;97932.98;;;2.09;81.44
44453;BME280;30155;52.164;21.236;2024-01-15T10:25:05;97932.91;;;1.96;81.21
44453;BME280;30155;52.164;21.236;2024-01-15T10:30:01;97936.96;;;1.89;80.98
44453;BME280;30155;52.164;21.236;2024-01-15T10:34:55;97933.75;;;1.92;81.10
44453;BME280;30155;52.164;21.236;2024-01-15T10:39:48;97934.43;;;1.93;81.12
44453;BME280;30155;52.164;21.236;2024-01-15T10:44:55;97932.85;;;1.86;80.63
44453;BME280;30155;52.164;21.236;2024-01-15T10:50:01;97939.13;;;1.81;80.34
44453;BME280;30155;52.164;21.236;2024-01-15T10:54:54;97937.92;;;1.78;80.68
44453;BME280;30155;52.164;21.236;2024-01-15T10:59:48;97941.73;;;1.87;80.49
44453;BME280;30155;52.164;21.236;2024-01-15T11:04:43;97936.27;;;2.15;80.07
44453;BME280;30155;52.164;21.236;2024-01-15T11:09:37;97931.30;;;2.45;80.08
44453;BME280;30155;52.164;21.236;2024-01-15T11:14:40;97932.30;;;2.36;79.75
44453;BME280;30155;52.164;21.236;2024-01-15T11:24:39;97930.09;;;2.10;79.79
44453;BME280;30155;52.164;21.236;2024-01-15T11:29:34;97926.81;;;2.03;79.79
44453;BME280;30155;52.164;21.236;2024-01-15T11:34:50;97925.45;;;2.04;79.73
44453;BME280;30155;52.164;21.236;2024-01-15T11:39:44;97911.33;;;2.16;79.64
44453;BME280;30155;52.164;21.236;2024-01-15T11:44:38;97906.77;;;2.24;79.68
44453;BME280;30155;52.164;21.236;2024-01-15T11:54:33;97896.85;;;2.63;78.19
44453;BME280;30155;52.164;21.236;2024-01-15T11:59:29;97889.08;;;2.44;78.24
44453;BME280;30155;52.164;21.236;2024-01-15T12:04:22;97891.67;;;2.15;78.77
44453;BME280;30155;52.164;21.236;2024-01-15T12:09:15;97888.33;;;1.98;79.09
44453;BME280;30155;52.164;21.236;2024-01-15T12:14:11;97889.80;;;2.14;79.70
44453;BME280;30155;52.164;21.236;2024-01-15T12:19:06;97886.27;;;2.29;78.93
44453;BME280;30155;52.164;21.236;2024-01-15T12:23:59;97890.86;;;2.19;79.08
44453;BME280;30155;52.164;21.236;2024-01-15T12:28:51;97893.02;;;2.09;79.38
44453;BME280;30155;52.164;21.236;2024-01-15T12:33:48;97893.28;;;1.94;79.67
44453;BME280;30155;52.164;21.236;2024-01-15T12:38:41;97894.25;;;1.86;80.39
44453;BME280;30155;52.164;21.236;2024-01-15T12:43:33;97892.13;;;1.78;80.08
44453;BME280;30155;52.164;21.236;2024-01-15T12:48:26;97892.52;;;1.60;80.09
44453;BME280;30155;52.164;21.236;2024-01-15T12:53:19;97898.02;;;1.43;81.02
44453;BME280;30155;52.164;21.236;2024-01-15T12:58:13;97897.25;;;1.33;81.51
44453;BME280;30155;52.164;21.236;2024-01-15T13:03:09;97895.96;;;1.22;81.96
44453;BME280;30155;52.164;21.236;2024-01-15T13:08:02;97896.35;;;1.27;82.11
44453;BME280;30155;52.164;21.236;2024-01-15T13:12:55;97894.63;;;1.26;81.43
44453;BME280;30155;52.164;21.236;2024-01-15T13:17:48;97900.55;;;1.19;81.23
44453;BME280;30155;52.164;21.236;2024-01-15T13:22:41;97909.20;;;1.13;81.82
44453;BME280;30155;52.164;21.236;2024-01-15T13:27:36;97909.23;;;0.98;82.64
44453;BME280;30155;52.164;21.236;2024-01-15T13:32:30;97918.26;;;0.83;83.53
44453;BME280;30155;52.164;21.236;2024-01-15T13:37:23;97914.23;;;0.72;83.98
44453;BME280;30155;52.164;21.236;2024-01-15T13:42:16;97915.85;;;0.65;84.27
44453;BME280;30155;52.164;21.236;2024-01-15T13:47:09;97907.09;;;0.60;84.64
44453;BME280;30155;52.164;21.236;2024-01-15T13:52:03;97902.97;;;0.57;84.54
44453;BME280;30155;52.164;21.236;2024-01-15T13:56:56;97905.88;;;0.55;84.47
44453;BME280;30155;52.164;21.236;2024-01-15T14:01:50;97912.34;;;0.57;84.47
44453;BME280;30155;52.164;21.236;2024-01-15T14:06:46;97911.84;;;0.57;84.59
44453;BME280;30155;52.164;21.236;2024-01-15T14:11:39;97917.02;;;0.62;84.60
44453;BME280;30155;52.164;21.236;2024-01-15T14:16:31;97926.53;;;0.59;84.69
44453;BME280;30155;52.164;21.236;2024-01-15T14:21:24;97923.13;;;0.60;84.38
44453;BME280;30155;52.164;21.236;2024-01-15T14:26:17;97928.75;;;0.60;84.69
44453;BME280;30155;52.164;21.236;2024-01-15T14:31:09;97927.71;;;0.58;84.49
44453;BME280;30155;52.164;21.236;2024-01-15T14:36:03;97928.70;;;0.57;84.49
44453;BME280;30155;52.164;21.236;2024-01-15T14:40:56;97928.16;;;0.54;84.32
44453;BME280;30155;52.164;21.236;2024-01-15T14:45:49;97921.16;;;0.52;84.30
44453;BME280;30155;52.164;21.236;2024-01-15T14:50:42;97919.42;;;0.50;84.18
44453;BME280;30155;52.164;21.236;2024-01-15T14:55:35;97917.52;;;0.48;84.11
44453;BME280;30155;52.164;21.236;2024-01-15T15:00:28;97919.21;;;0.47;84.11
44453;BME280;30155;52.164;21.236;2024-01-15T15:05:21;97918.17;;;0.45;84.00
44453;BME280;30155;52.164;21.236;2024-01-15T15:10:14;97917.29;;;0.42;84.18
44453;BME280;30155;52.164;21.236;2024-01-15T15:15:07;97911.80;;;0.41;84.34
44453;BME280;30155;52.164;21.236;2024-01-15T15:20:09;97910.77;;;0.38;84.30
44453;BME280;30155;52.164;21.236;2024-01-15T15:25:02;97908.37;;;0.38;84.29
44453;BME280;30155;52.164;21.236;2024-01-15T15:29:55;97907.16;;;0.36;84.17
44453;BME280;30155;52.164;21.236;2024-01-15T15:34:48;97891.30;;;0.36;84.29
44453;BME280;30155;52.164;21.236;2024-01-15T15:39:41;97896.56;;;0.33;84.10
44453;BME280;30155;52.164;21.236;2024-01-15T15:44:34;97891.77;;;0.32;84.15
44453;BME280;30155;52.164;21.236;2024-01-15T15:49:27;97892.77;;;0.30;83.87
44453;BME280;30155;52.164;21.236;2024-01-15T15:54:20;97894.30;;;0.29;84.08
44453;BME280;30155;52.164;21.236;2024-01-15T15:59:13;97891.87;;;0.26;83.84
44453;BME280;30155;52.164;21.236;2024-01-15T16:04:06;97897.78;;;0.23;83.45
44453;BME280;30155;52.164;21.236;2024-01-15T16:08:59;97895.56;;;0.22;83.30
44453;BME280;30155;52.164;21.236;2024-01-15T16:13:52;97891.63;;;0.21;83.25
44453;BME280;30155;52.164;21.236;2024-01-15T16:18:44;97897.62;;;0.22;83.29
44453;BME280;30155;52.164;21.236;2024-01-15T16:23:57;97888.92;;;0.22;82.85
44453;BME280;30155;52.164;21.236;2024-01-15T16:29:10;97883.16;;;0.25;82.84
44453;BME280;30155;52.164;21.236;2024-01-15T16:34:02;97873.13;;;0.27;82.81
44453;BME280;30155;52.164;21.236;2024-01-15T16:38:56;97867.33;;;0.26;82.63
44453;BME280;30155;52.164;21.236;2024-01-15T16:43:49;97869.33;;;0.22;82.51
44453;BME280;30155;52.164;21.236;2024-01-15T16:48:42;97862.45;;;0.17;82.25
44453;BME280;30155;52.164;21.236;2024-01-15T16:53:34;97873.47;;;0.13;82.16
44453;BME280;30155;52.164;21.236;2024-01-15T16:58:27;97877.23;;;0.14;82.09
44453;BME280;30155;52.164;21.236;2024-01-15T17:03:20;97887.52;;;0.19;82.10
44453;BME280;30155;52.164;21.236;2024-01-15T17:08:13;97897.41;;;0.20;82.86
44453;BME280;30155;52.164;21.236;2024-01-15T17:13:05;97903.13;;;0.14;83.62
44453;BME280;30155;52.164;21.236;2024-01-15T17:17:58;97905.60;;;0.08;83.54
44453;BME280;30155;52.164;21.236;2024-01-15T17:22:51;97900.98;;;0.07;83.65
44453;BME280;30155;52.164;21.236;2024-01-15T17:27:44;97900.35;;;0.10;83.57
44453;BME280;30155;52.164;21.236;2024-01-15T17:32:37;97893.55;;;0.11;83.73
44453;BME280;30155;52.164;21.236;2024-01-15T17:37:30;97897.48;;;0.13;83.32
44453;BME280;30155;52.164;21.236;2024-01-15T17:42:23;97901.75;;;0.13;83.19
44453;BME280;30155;52.164;21.236;2024-01-15T17:47:15;97904.81;;;0.13;83.60
44453;BME280;30155;52.164;21.236;2024-01-15T17:52:08;97925.73;;;0.11;83.69
44453;BME280;30155;52.164;21.236;2024-01-15T17:57:01;97931.99;;;0.08;84.42
44453;BME280;30155;52.164;21.236;2024-01-15T18:01:54;97932.91;;;0.00;84.99
44453;BME280;30155;52.164;21.236;2024-01-15T18:06:47;97924.92;;;-0.10;85.14
44453;BME280;30155;52.164;21.236;2024-01-15T18:11:40;97918.08;;;-0.13;85.39
44453;BME280;30155;52.164;21.236;2024-01-15T18:16:33;97919.96;;;-0.12;85.48
44453;BME280;30155;52.164;21.236;2024-01-15T18:21:26;97925.58;;;-0.12;85.52
44453;BME280;30155;52.164;21.236;2024-01-15T18:26:20;97921.80;;;-0.14;85.81
44453;BME280;30155;52.164;21.236;2024-01-15T18:31:13;97929.28;;;-0.15;85.97
44453;BME280;30155;52.164;21.236;2024-01-15T18:36:06;97943.39;;;-0.17;86.28
44453;BME280;30155;52.164;21.236;2024-01-15T18:40:59;97949.11;;;-0.22;86.96
44453;BME280;30155;52.164;21.236;2024-01-15T18:45:54;97953.25;;;-0.28;87.19
44453;BME280;30155;52.164;21.236;2024-01-15T18:50:47;97962.17;;;-0.34;87.19
44453;BME280;30155;52.164;21.236;2024-01-15T18:55:40;97969.29;;;-0.37;87.46
44453;BME280;30155;52.164;21.236;2024-01-15T19:00:33;97963.63;;;-0.40;87.51
44453;BME280;30155;52.164;21.236;2024-01-15T19:05:26;97971.61;;;-0.41;87.49
44453;BME280;30155;52.164;21.236;2024-01-15T19:10:19;97975.02;;;-0.41;87.36
44453;BME280;30155;52.164;21.236;2024-01-15T19:15:13;97971.73;;;-0.44;86.62
44453;BME280;30155;52.164;21.236;2024-01-15T19:20:11;97991.20;;;-0.50;85.99
44453;BME280;30155;52.164;21.236;2024-01-15T19:25:05;98005.43;;;-0.53;85.78
44453;BME280;30155;52.164;21.236;2024-01-15T19:29:58;98012.09;;;-0.53;85.51
44453;BME280;30155;52.164;21.236;2024-01-15T19:34:52;98011.80;;;-0.58;85.57
44453;BME280;30155;52.164;21.236;2024-01-15T19:39:44;98010.75;;;-0.69;85.08
44453;BME280;30155;52.164;21.236;2024-01-15T19:44:37;98007.34;;;-0.79;84.82
44453;BME280;30155;52.164;21.236;2024-01-15T19:49:31;98016.13;;;-0.83;84.59
44453;BME280;30155;52.164;21.236;2024-01-15T19:54:24;98024.96;;;-0.83;84.45
44453;BME280;30155;52.164;21.236;2024-01-15T19:59:16;98025.66;;;-0.83;84.10
44453;BME280;30155;52.164;21.236;2024-01-15T20:04:10;98040.02;;;-0.87;83.71
44453;BME280;30155;52.164;21.236;2024-01-15T20:09:02;98041.46;;;-0.91;83.53
44453;BME280;30155;52.164;21.236;2024-01-15T20:13:55;98049.95;;;-0.92;83.41
44453;BME280;30155;52.164;21.236;2024-01-15T20:18:48;98060.45;;;-0.94;82.80
44453;BME280;30155;52.164;21.236;2024-01-15T20:23:41;98076.13;;;-0.93;82.73
44453;BME280;30155;52.164;21.236;2024-01-15T20:28:48;98084.48;;;-0.91;82.08
44453;BME280;30155;52.164;21.236;2024-01-15T20:33:41;98096.21;;;-0.92;81.59
44453;BME280;30155;52.164;21.236;2024-01-15T20:38:35;98099.61;;;-0.93;81.32
44453;BME280;30155;52.164;21.236;2024-01-15T20:43:30;98107.39;;;-0.95;80.77
44453;BME280;30155;52.164;21.236;2024-01-15T20:48:22;98114.98;;;-0.98;80.26
44453;BME280;30155;52.164;21.236;2024-01-15T20:53:15;98112.73;;;-1.00;79.65
44453;BME280;30155;52.164;21.236;2024-01-15T20:58:08;98114.00;;;-1.04;79.60
44453;BME280;30155;52.164;21.236;2024-01-15T21:03:02;98122.76;;;-1.07;79.31
44453;BME280;30155;52.164;21.236;2024-01-15T21:07:55;98135.48;;;-1.09;79.28
44453;BME280;30155;52.164;21.236;2024-01-15T21:12:49;98136.48;;;-1.09;79.12
44453;BME280;30155;52.164;21.236;2024-01-15T21:17:41;98153.30;;;-1.10;78.93
44453;BME280;30155;52.164;21.236;2024-01-15T21:22:37;98159.40;;;-1.11;78.80
44453;BME280;30155;52.164;21.236;2024-01-15T21:27:32;98167.58;;;-1.10;78.45
44453;BME280;30155;52.164;21.236;2024-01-15T21:32:25;98174.21;;;-1.09;79.32
44453;BME280;30155;52.164;21.236;2024-01-15T21:37:17;98181.75;;;-1.07;78.50
44453;BME280;30155;52.164;21.236;2024-01-15T21:42:11;98190.80;;;-1.06;78.67
44453;BME280;30155;52.164;21.236;2024-01-15T21:47:07;98198.45;;;-1.06;78.60
44453;BME280;30155;52.164;21.236;2024-01-15T21:51:59;98203.04;;;-1.06;78.16
44453;BME280;30155;52.164;21.236;2024-01-15T21:56:52;98209.35;;;-1.05;78.24
44453;BME280;30155;52.164;21.236;2024-01-15T22:01:45;98219.56;;;-1.04;78.65
44453;BME280;30155;52.164;21.236;2024-01-15T22:06:43;98218.88;;;-1.05;78.50
44453;BME280;30155;52.164;21.236;2024-01-15T22:11:36;98225.62;;;-1.07;78.29
44453;BME280;30155;52.164;21.236;2024-01-15T22:16:28;98241.36;;;-1.10;78.45
44453;BME280;30155;52.164;21.236;2024-01-15T22:21:21;98246.55;;;-1.14;78.52
44453;BME280;30155;52.164;21.236;2024-01-15T22:26:14;98253.60;;;-1.19;78.40
44453;BME280;30155;52.164;21.236;2024-01-15T22:31:07;98269.46;;;-1.22;78.78
44453;BME280;30155;52.164;21.236;2024-01-15T22:36:03;98280.05;;;-1.28;78.62
44453;BME280;30155;52.164;21.236;2024-01-15T22:40:56;98295.25;;;-1.31;78.73
44453;BME280;30155;52.164;21.236;2024-01-15T22:45:49;98305.04;;;-1.34;78.78
44453;BME280;30155;52.164;21.236;2024-01-15T22:50:42;98312.67;;;-1.41;78.73
44453;BME280;30155;52.164;21.236;2024-01-15T22:55:35;98323.23;;;-1.47;78.84
44453;BME280;30155;52.164;21.236;2024-01-15T23:00:27;98334.48;;;-1.52;78.80
44453;BME280;30155;52.164;21.236;2024-01-15T23:05:20;98338.39;;;-1.59;78.63
44453;BME280;30155;52.164;21.236;2024-01-15T23:10:15;98342.83;;;-1.64;78.50
44453;BME280;30155;52.164;21.236;2024-01-15T23:15:08;98345.11;;;-1.67;78.68
44453;BME280;30155;52.164;21.236;2024-01-15T23:20:01;98351.10;;;-1.66;78.63
44453;BME280;30155;52.164;21.236;2024-01-15T23:24:55;98359.81;;;-1.63;78.32
44453;BME280;30155;52.164;21.236;2024-01-15T23:29:48;98363.56;;;-1.63;77.57
44453;BME280;30155;52.164;21.236;2024-01-15T23:34:44;98361.88;;;-1.63;77.27
44453;BME280;30155;52.164;21.236;2024-01-15T23:39:36;98372.23;;;-1.63;77.25
44453;BME280;30155;52.164;21.236;2024-01-15T23:44:30;98377.98;;;-1.63;76.84
44453;BME280;30155;52.164;21.236;2024-01-15T23:49:27;98384.65;;;-1.62;76.71
44453;BME280;30155;52.164;21.236;2024-01-15T23:54:22;98386.48;;;-1.64;76.28
44453;BME280;30155;52.164;21.236;2024-01-15T23:59:17;98394.11;;;-1.64;76.49
